Time;durP1;ratioP1;P1;durP2;ratioP2;P2;SDS_P1;SDS_P2;PMS_P1;PMS_P2;Temp;Humidity;BMP_temperature;BMP_pressure;BME280_temperature;BME280_humidity;BME280_pressure;Samples;Min_cycle;Max_cycle;Signal;HPM_P1;HPM_P2
2021/04/06 00:02:25;;;;;;;12.77;1.65;;;;;;;;;;5092363;28;20184;-75
2021/04/06 00:04:52;;;;;;;0.70;0.70;;;;;;;;;;5091885;28;20225;-74
2021/04/06 00:07:20;;;;;;;1.88;1.52;;;;;;;;;;5092158;28;20195;-74
2021/04/06 00:09:49;;;;;;;4.93;0.95;;;;;;;;;;5092456;28;20219;-74
2021/04/06 00:12:16;;;;;;;0.90;0.90;;;;;;;;;;5092369;28;20260;-73
2021/04/06 00:14:43;;;;;;;1.90;1.10;;;;;;;;;;5092384;28;20274;-74
2021/04/06 00:17:10;;;;;;;1.33;1.23;;;;;;;;;;5093302;28;20196;-73
2021/04/06 00:19:38;;;;;;;2.45;1.88;;;;;;;;;;5096596;28;20613;-74
2021/04/06 00:22:05;;;;;;;1.45;1.35;;;;;;;;;;5096443;28;20637;-74
2021/04/06 00:24:32;;;;;;;1.30;1.20;;;;;;;;;;5095999;28;20227;-74
2021/04/06 00:27:05;;;;;;;1.15;1.05;;;;;;;;;;5095836;28;20225;-74
2021/04/06 00:29:33;;;;;;;1.08;0.98;;;;;;;;;;5095821;28;20597;-74
2021/04/06 00:32:02;;;;;;;1.02;0.93;;;;;;;;;;5096233;28;20206;-73
2021/04/06 00:34:29;;;;;;;1.45;1.20;;;;;;;;;;5096087;28;20245;-74
2021/04/06 00:36:56;;;;;;;1.10;1.00;;;;;;;;;;5095926;28;20330;-74
2021/04/06 00:39:26;;;;;;;2.70;1.10;;;;;;;;;;5096179;28;20611;-74
2021/04/06 00:41:52;;;;;;;1.88;0.93;;;;;;;;;;5096268;28;20621;-74
2021/04/06 00:44:18;;;;;;;0.80;0.80;;;;;;;;;;5095884;28;20196;-73
2021/04/06 00:46:45;;;;;;;6.18;1.27;;;;;;;;;;5095910;28;20546;-73
2021/04/06 00:49:13;;;;;;;1.02;0.80;;;;;;;;;;5095882;28;20286;-74
2021/04/06 00:51:40;;;;;;;1.83;1.73;;;;;;;;;;5095558;28;20262;-74
2021/04/06 00:54:07;;;;;;;1.08;1.08;;;;;;;;;;5095480;28;20207;-74
2021/04/06 00:56:33;;;;;;;3.22;3.03;;;;;;;;;;5095269;28;20195;-74
2021/04/06 00:59:00;;;;;;;1.65;1.00;;;;;;;;;;5095465;28;20644;-74
2021/04/06 01:01:33;;;;;;;5.15;2.80;;;;;;;;;;5095177;28;20194;-74
2021/04/06 01:04:02;;;;;;;1.40;1.30;;;;;;;;;;5095030;28;20212;-74
2021/04/06 01:06:29;;;;;;;1.17;1.08;;;;;;;;;;5095364;28;20295;-75
2021/04/06 01:08:56;;;;;;;2.47;1.27;;;;;;;;;;5095101;28;20681;-74
2021/04/06 01:11:23;;;;;;;1.13;1.02;;;;;;;;;;5094912;28;20220;-73
2021/04/06 01:13:49;;;;;;;2.20;1.80;;;;;;;;;;5095052;28;20234;-74
2021/04/06 01:16:15;;;;;;;1.40;1.40;;;;;;;;;;5094583;28;20321;-74
2021/04/06 01:18:41;;;;;;;7.13;1.65;;;;;;;;;;5095140;28;20204;-74
2021/04/06 01:21:09;;;;;;;2.88;1.27;;;;;;;;;;5094714;28;20209;-75
2021/04/06 01:23:36;;;;;;;3.83;1.20;;;;;;;;;;5094690;28;20288;-73
2021/04/06 01:26:03;;;;;;;1.95;1.85;;;;;;;;;;5094811;28;20294;-74
2021/04/06 01:28:30;;;;;;;1.05;1.05;;;;;;;;;;5094296;28;20765;-74
2021/04/06 01:30:57;;;;;;;1.80;1.17;;;;;;;;;;5094652;28;20548;-74
2021/04/06 01:33:24;;;;;;;2.95;2.20;;;;;;;;;;5094768;28;20227;-73
2021/04/06 01:35:52;;;;;;;3.72;1.08;;;;;;;;;;5094103;28;20323;-73
2021/04/06 01:38:18;;;;;;;3.75;0.90;;;;;;;;;;5093789;28;20245;-74
2021/04/06 01:40:45;;;;;;;1.02;0.70;;;;;;;;;;5094150;28;20288;-73
2021/04/06 01:43:12;;;;;;;1.40;1.23;;;;;;;;;;5094245;28;20290;-74
2021/04/06 01:45:44;;;;;;;0.70;0.60;;;;;;;;;;5093949;28;20246;-73
2021/04/06 01:48:10;;;;;;;1.65;1.55;;;;;;;;;;5094206;28;20213;-73
2021/04/06 01:50:37;;;;;;;0.93;0.80;;;;;;;;;;5093893;28;20224;-74
2021/04/06 01:53:03;;;;;;;0.98;0.80;;;;;;;;;;5093879;28;20203;-74
2021/04/06 01:55:32;;;;;;;1.20;1.00;;;;;;;;;;5094322;28;20206;-73
2021/04/06 01:58:00;;;;;;;0.70;0.70;;;;;;;;;;5094371;28;20229;-73
2021/04/06 02:00:32;;;;;;;1.10;1.00;;;;;;;;;;5094467;28;20181;-74
2021/04/06 02:03:03;;;;;;;2.28;1.20;;;;;;;;;;5094330;28;20222;-74
2021/04/06 02:05:29;;;;;;;1.13;1.02;;;;;;;;;;5094166;28;20209;-74
2021/04/06 02:08:00;;;;;;;2.60;1.38;;;;;;;;;;5093996;28;20214;-74
2021/04/06 02:10:26;;;;;;;2.78;1.40;;;;;;;;;;5093899;28;20207;-73
2021/04/06 02:12:52;;;;;;;2.22;2.03;;;;;;;;;;5093820;28;20232;-73
2021/04/06 02:15:19;;;;;;;2.00;1.65;;;;;;;;;;5093818;28;20235;-74
2021/04/06 02:17:46;;;;;;;1.65;1.48;;;;;;;;;;5093899;28;20213;-74
2021/04/06 02:20:18;;;;;;;8.40;1.42;;;;;;;;;;5093789;28;20192;-73
2021/04/06 02:22:53;;;;;;;4.15;1.60;;;;;;;;;;5093630;28;20200;-74
2021/04/06 02:25:19;;;;;;;2.72;1.08;;;;;;;;;;5093444;28;20568;-73
2021/04/06 02:27:45;;;;;;;1.42;1.13;;;;;;;;;;5093468;28;20199;-74
2021/04/06 02:30:12;;;;;;;1.90;0.93;;;;;;;;;;5092771;28;20211;-75
2021/04/06 02:32:39;;;;;;;0.70;0.70;;;;;;;;;;5093406;28;20242;-73
2021/04/06 02:35:06;;;;;;;1.77;1.67;;;;;;;;;;5093549;28;20190;-73
2021/04/06 02:37:33;;;;;;;2.38;2.00;;;;;;;;;;5093138;28;20239;-74
2021/04/06 02:40:01;;;;;;;2.15;0.77;;;;;;;;;;5093510;28;20202;-75
2021/04/06 02:42:29;;;;;;;2.30;1.50;;;;;;;;;;5093253;28;20276;-74
2021/04/06 02:44:57;;;;;;;1.67;1.58;;;;;;;;;;5092953;28;20294;-74
2021/04/06 02:47:24;;;;;;;1.65;1.25;;;;;;;;;;5093330;28;20222;-74
2021/04/06 02:49:51;;;;;;;2.58;2.30;;;;;;;;;;5093184;28;20200;-73
2021/04/06 02:52:17;;;;;;;1.85;0.95;;;;;;;;;;5093350;28;20680;-74
2021/04/06 02:54:44;;;;;;;6.25;1.42;;;;;;;;;;5093042;28;20236;-74
2021/04/06 02:57:27;;;;;;;6.07;1.13;;;;;;;;;;5092913;28;20211;-74
2021/04/06 02:59:54;;;;;;;6.35;1.17;;;;;;;;;;5092971;28;20207;-73
2021/04/06 03:02:21;;;;;;;3.28;1.38;;;;;;;;;;5092936;28;20207;-72
2021/04/06 03:04:47;;;;;;;0.80;0.80;;;;;;;;;;5092795;28;20227;-74
2021/04/06 03:07:19;;;;;;;0.70;0.70;;;;;;;;;;5092879;28;20545;-74
2021/04/06 03:09:52;;;;;;;5.57;2.35;;;;;;;;;;5092309;28;20237;-74
2021/04/06 03:12:18;;;;;;;1.55;1.45;;;;;;;;;;5092920;28;20588;-74
2021/04/06 03:14:46;;;;;;;4.03;1.40;;;;;;;;;;5092619;28;20191;-74
2021/04/06 03:17:12;;;;;;;5.35;1.23;;;;;;;;;;5092809;28;20790;-73
2021/04/06 03:19:38;;;;;;;1.50;1.40;;;;;;;;;;5092937;28;20316;-73
2021/04/06 03:22:06;;;;;;;1.30;1.20;;;;;;;;;;5092031;28;20189;-74
2021/04/06 03:24:33;;;;;;;2.05;1.70;;;;;;;;;;5092342;28;20212;-74
2021/04/06 03:27:00;;;;;;;4.70;1.95;;;;;;;;;;5092415;28;20212;-74
2021/04/06 03:29:26;;;;;;;2.45;1.45;;;;;;;;;;5092636;28;20260;-73
2021/04/06 03:31:54;;;;;;;3.00;1.20;;;;;;;;;;5092426;28;20986;-74
2021/04/06 03:34:20;;;;;;;4.13;2.15;;;;;;;;;;5092346;28;20607;-73
2021/04/06 03:36:46;;;;;;;1.15;1.10;;;;;;;;;;5092290;28;20258;-74
2021/04/06 03:39:13;;;;;;;1.50;1.40;;;;;;;;;;5092052;28;20200;-74
2021/04/06 03:41:40;;;;;;;1.38;1.27;;;;;;;;;;5092155;28;20202;-74
2021/04/06 03:44:07;;;;;;;10.02;2.38;;;;;;;;;;5092738;28;20211;-74
2021/04/06 03:46:33;;;;;;;2.17;1.75;;;;;;;;;;5092834;28;20633;-74
2021/04/06 03:49:12;;;;;;;1.83;1.30;;;;;;;;;;5091930;28;20218;-73
2021/04/06 03:51:46;;;;;;;6.57;1.35;;;;;;;;;;5092411;28;20257;-74
2021/04/06 03:54:27;;;;;;;2.40;1.60;;;;;;;;;;5096090;28;20196;-74
2021/04/06 03:56:54;;;;;;;2.08;1.67;;;;;;;;;;5095490;28;20649;-74
2021/04/06 03:59:21;;;;;;;1.60;1.50;;;;;;;;;;5096797;28;20567;-74
2021/04/06 04:01:47;;;;;;;4.05;1.60;;;;;;;;;;5096811;28;20195;-74
2021/04/06 04:04:14;;;;;;;5.13;1.83;;;;;;;;;;5096122;28;20199;-73
2021/04/06 04:06:40;;;;;;;3.75;1.30;;;;;;;;;;5096698;28;20195;-74
2021/04/06 04:09:06;;;;;;;8.18;2.38;;;;;;;;;;5096075;28;20210;-74
2021/04/06 04:11:32;;;;;;;3.28;1.95;;;;;;;;;;5095940;28;20246;-74
2021/04/06 04:13:59;;;;;;;2.03;1.80;;;;;;;;;;5096273;28;20188;-74
2021/04/06 04:16:25;;;;;;;2.70;2.15;;;;;;;;;;5096315;28;20616;-74
2021/04/06 04:18:51;;;;;;;4.47;1.92;;;;;;;;;;5096170;28;20245;-74
2021/04/06 04:21:17;;;;;;;2.85;2.13;;;;;;;;;;5095975;28;20202;-74
2021/04/06 04:23:43;;;;;;;1.42;1.30;;;;;;;;;;5095737;28;20649;-73
2021/04/06 04:26:10;;;;;;;1.70;1.60;;;;;;;;;;5095936;28;20234;-74
2021/04/06 04:28:36;;;;;;;14.85;1.67;;;;;;;;;;5095711;28;20235;-75
2021/04/06 04:31:11;;;;;;;1.60;1.33;;;;;;;;;;5095751;28;20204;-73
2021/04/06 04:33:37;;;;;;;1.52;1.15;;;;;;;;;;5096441;28;20206;-73
2021/04/06 04:36:03;;;;;;;1.73;1.58;;;;;;;;;;5095257;28;20230;-74
2021/04/06 04:38:29;;;;;;;1.88;1.77;;;;;;;;;;5095737;28;20203;-74
2021/04/06 04:40:55;;;;;;;1.15;1.05;;;;;;;;;;5095771;28;20196;-74
2021/04/06 04:43:21;;;;;;;2.10;1.90;;;;;;;;;;5095851;28;20204;-73
2021/04/06 04:45:47;;;;;;;2.00;1.85;;;;;;;;;;5095344;28;20200;-73
2021/04/06 04:48:14;;;;;;;1.50;1.40;;;;;;;;;;5096013;28;20196;-74
2021/04/06 04:50:40;;;;;;;3.20;1.85;;;;;;;;;;5095134;28;20219;-73
2021/04/06 04:53:06;;;;;;;9.65;1.55;;;;;;;;;;5095839;28;20681;-74
2021/04/06 04:55:32;;;;;;;2.85;1.40;;;;;;;;;;5095800;28;20204;-74
2021/04/06 04:57:58;;;;;;;4.13;2.30;;;;;;;;;;5095676;28;20210;-75
2021/04/06 05:00:24;;;;;;;2.15;1.35;;;;;;;;;;5095178;28;20608;-74
2021/04/06 05:02:50;;;;;;;1.80;1.67;;;;;;;;;;5095502;28;20188;-74
2021/04/06 05:05:18;;;;;;;1.50;1.40;;;;;;;;;;5094210;28;20200;-74
2021/04/06 05:07:45;;;;;;;1.33;1.23;;;;;;;;;;5095393;28;20184;-73
2021/04/06 05:10:12;;;;;;;21.23;1.73;;;;;;;;;;5094827;28;20237;-73
2021/04/06 05:12:38;;;;;;;13.82;2.08;;;;;;;;;;5094984;28;20204;-73
2021/04/06 05:15:05;;;;;;;0.80;0.80;;;;;;;;;;5094949;28;20612;-74
2021/04/06 05:17:31;;;;;;;1.63;1.52;;;;;;;;;;5094618;28;20188;-73
2021/04/06 05:19:57;;;;;;;1.75;1.63;;;;;;;;;;5094523;28;20212;-73
2021/04/06 05:22:24;;;;;;;1.25;1.15;;;;;;;;;;5094260;28;20211;-73
2021/04/06 05:24:50;;;;;;;1.23;1.13;;;;;;;;;;5094303;28;20188;-72
2021/04/06 05:27:16;;;;;;;2.03;1.88;;;;;;;;;;5094587;28;20664;-73
2021/04/06 05:29:42;;;;;;;5.13;2.00;;;;;;;;;;5094030;28;20200;-73
2021/04/06 05:32:08;;;;;;;1.65;1.50;;;;;;;;;;5093850;28;20669;-73
2021/04/06 05:34:34;;;;;;;2.75;1.23;;;;;;;;;;5094703;28;20220;-73
2021/04/06 05:37:00;;;;;;;2.47;1.73;;;;;;;;;;5093492;28;20586;-73
2021/04/06 05:39:27;;;;;;;2.20;1.38;;;;;;;;;;5093761;28;20188;-74
2021/04/06 05:41:53;;;;;;;1.85;1.50;;;;;;;;;;5073882;28;20201;-73
2021/04/06 05:44:20;;;;;;;0.90;0.90;;;;;;;;;;5084941;28;20200;-74
2021/04/06 05:46:47;;;;;;;3.03;1.92;;;;;;;;;;5094715;28;20293;-73
2021/04/06 05:49:14;;;;;;;3.55;2.20;;;;;;;;;;5094062;28;20248;-75
2021/04/06 05:51:40;;;;;;;11.23;3.17;;;;;;;;;;5093616;28;20302;-74
2021/04/06 05:54:09;;;;;;;1.20;0.88;;;;;;;;;;5094030;28;20231;-74
2021/04/06 05:56:35;;;;;;;15.32;1.48;;;;;;;;;;5094010;28;20220;-74
2021/04/06 05:59:02;;;;;;;1.77;1.67;;;;;;;;;;5094004;28;20200;-73
2021/04/06 06:01:29;;;;;;;2.03;1.10;;;;;;;;;;5094235;28;20204;-75
2021/04/06 06:03:55;;;;;;;1.65;1.40;;;;;;;;;;5093137;28;20202;-73
2021/04/06 06:06:22;;;;;;;4.43;1.27;;;;;;;;;;5093632;28;20682;-73
2021/04/06 06:08:51;;;;;;;1.13;1.02;;;;;;;;;;5093243;28;20257;-73
2021/04/06 06:11:17;;;;;;;8.48;1.83;;;;;;;;;;5093014;28;20208;-74
2021/04/06 06:13:44;;;;;;;0.98;0.98;;;;;;;;;;5093464;28;20203;-73
2021/04/06 06:16:15;;;;;;;1.70;1.30;;;;;;;;;;5093122;28;20235;-75
2021/04/06 06:19:00;;;;;;;9.60;2.72;;;;;;;;;;5093474;28;20252;-72
2021/04/06 06:21:37;;;;;;;1.15;1.05;;;;;;;;;;5093643;28;20215;-72
2021/04/06 06:24:03;;;;;;;1.63;1.52;;;;;;;;;;5093293;28;20196;-72
2021/04/06 06:26:29;;;;;;;1.67;0.90;;;;;;;;;;5093339;28;20212;-73
2021/04/06 06:29:16;;;;;;;2.80;1.85;;;;;;;;;;5093317;28;20203;-72
2021/04/06 06:31:44;;;;;;;5.05;2.70;;;;;;;;;;5092708;28;20204;-72
2021/04/06 06:34:24;;;;;;;2.03;1.83;;;;;;;;;;5094040;28;20207;-72
2021/04/06 06:37:00;;;;;;;2.78;1.20;;;;;;;;;;5092934;28;20598;-72
2021/04/06 06:39:26;;;;;;;3.45;1.50;;;;;;;;;;5092160;28;20595;-72
2021/04/06 06:41:56;;;;;;;1.25;1.15;;;;;;;;;;5093537;28;20234;-72
2021/04/06 06:44:23;;;;;;;3.63;1.63;;;;;;;;;;5093466;28;20188;-72
2021/04/06 06:47:01;;;;;;;2.00;1.75;;;;;;;;;;5092636;28;20200;-71
2021/04/06 06:49:29;;;;;;;1.70;0.80;;;;;;;;;;5093737;28;20652;-73
2021/04/06 06:51:55;;;;;;;1.60;1.33;;;;;;;;;;5093232;28;20226;-73
2021/04/06 06:54:33;;;;;;;1.17;0.93;;;;;;;;;;5092919;28;20562;-72
2021/04/06 06:57:06;;;;;;;4.72;2.25;;;;;;;;;;5093140;28;20252;-72
2021/04/06 06:59:36;;;;;;;1.15;1.05;;;;;;;;;;5092332;28;20253;-73
2021/04/06 07:02:17;;;;;;;1.80;1.27;;;;;;;;;;5092758;28;20282;-72
2021/04/06 07:04:43;;;;;;;1.88;1.70;;;;;;;;;;5092693;28;20314;-73
2021/04/06 07:07:09;;;;;;;1.50;1.30;;;;;;;;;;5093331;28;20208;-73
2021/04/06 07:09:36;;;;;;;1.08;0.95;;;;;;;;;;5093258;28;20238;-72
2021/04/06 07:12:04;;;;;;;1.48;1.20;;;;;;;;;;5092687;28;20306;-73
2021/04/06 07:14:31;;;;;;;6.20;1.90;;;;;;;;;;5093255;28;20216;-73
2021/04/06 07:16:58;;;;;;;1.55;1.13;;;;;;;;;;5092068;28;20207;-74
2021/04/06 07:19:25;;;;;;;3.72;1.80;;;;;;;;;;5092322;28;20203;-72
2021/04/06 07:21:53;;;;;;;5.47;1.63;;;;;;;;;;5092881;28;20253;-72
2021/04/06 07:24:20;;;;;;;2.92;1.60;;;;;;;;;;5091870;28;20311;-72
2021/04/06 07:26:46;;;;;;;3.67;1.35;;;;;;;;;;5091813;28;20200;-73
2021/04/06 07:29:13;;;;;;;2.85;1.60;;;;;;;;;;5092642;28;20287;-73
2021/04/06 07:31:39;;;;;;;3.90;1.23;;;;;;;;;;5093209;28;20669;-72
2021/04/06 07:34:08;;;;;;;3.38;1.55;;;;;;;;;;5092566;28;20621;-72
2021/04/06 07:36:34;;;;;;;3.33;2.15;;;;;;;;;;5091771;28;20251;-73
2021/04/06 07:39:01;;;;;;;1.85;0.80;;;;;;;;;;5091992;28;20278;-72
2021/04/06 07:41:28;;;;;;;2.78;1.67;;;;;;;;;;5092563;28;20275;-72
2021/04/06 07:43:55;;;;;;;2.38;2.25;;;;;;;;;;5092283;28;20280;-72
2021/04/06 07:46:44;;;;;;;6.72;2.58;;;;;;;;;;5091882;28;20196;-71
2021/04/06 07:49:12;;;;;;;4.15;1.50;;;;;;;;;;5092111;28;20292;-72
2021/04/06 07:51:39;;;;;;;2.88;1.95;;;;;;;;;;5092018;28;20259;-72
2021/04/06 07:54:07;;;;;;;9.20;1.65;;;;;;;;;;5092448;28;20537;-73
2021/04/06 07:56:53;;;;;;;2.45;0.80;;;;;;;;;;5092067;28;20225;-72
2021/04/06 07:59:43;;;;;;;3.28;1.60;;;;;;;;;;5091896;28;20629;-72
2021/04/06 08:02:42;;;;;;;2.13;1.98;;;;;;;;;;5092192;28;20207;-71
2021/04/06 08:05:15;;;;;;;1.05;0.95;;;;;;;;;;5092116;28;20607;-71
2021/04/06 08:07:42;;;;;;;3.38;2.70;;;;;;;;;;5092307;28;20227;-72
2021/04/06 08:10:25;;;;;;;0.90;0.80;;;;;;;;;;5092110;28;20210;-73
2021/04/06 08:12:52;;;;;;;5.57;2.17;;;;;;;;;;5081710;28;20207;-73
2021/04/06 08:15:19;;;;;;;3.67;1.92;;;;;;;;;;5091996;28;20204;-72
2021/04/06 08:17:50;;;;;;;1.63;1.35;;;;;;;;;;5092454;28;20190;-72
2021/04/06 08:20:21;;;;;;;3.17;1.33;;;;;;;;;;5092426;28;20203;-72
2021/04/06 08:22:49;;;;;;;5.10;2.20;;;;;;;;;;5091631;28;20220;-72
2021/04/06 08:25:33;;;;;;;2.30;2.20;;;;;;;;;;5092570;28;20303;-71
2021/04/06 08:28:01;;;;;;;1.88;1.77;;;;;;;;;;5092156;28;20226;-71
2021/04/06 08:30:27;;;;;;;2.17;1.85;;;;;;;;;;5092131;28;20567;-73
2021/04/06 08:33:12;;;;;;;3.30;1.70;;;;;;;;;;5092536;28;20214;-73
2021/04/06 08:35:57;;;;;;;2.25;2.05;;;;;;;;;;5091581;28;20280;-72
2021/04/06 08:38:41;;;;;;;0.98;0.88;;;;;;;;;;5093108;28;20188;-73
2021/04/06 08:41:10;;;;;;;4.03;1.80;;;;;;;;;;5085277;28;20556;-72
2021/04/06 08:43:38;;;;;;;2.47;1.85;;;;;;;;;;5095849;28;20204;-73
2021/04/06 08:46:05;;;;;;;2.03;1.77;;;;;;;;;;5095314;28;20238;-72
2021/04/06 08:48:48;;;;;;;2.65;2.28;;;;;;;;;;5095331;28;20283;-71
2021/04/06 08:51:22;;;;;;;1.10;1.00;;;;;;;;;;5095342;28;20278;-72
2021/04/06 08:53:49;;;;;;;4.18;1.65;;;;;;;;;;5095286;28;20246;-73
2021/04/06 08:56:17;;;;;;;3.17;2.75;;;;;;;;;;5095365;28;20200;-72
2021/04/06 08:58:43;;;;;;;3.63;2.05;;;;;;;;;;5095364;28;20211;-71
2021/04/06 09:01:09;;;;;;;1.17;1.02;;;;;;;;;;5095281;28;20291;-73
2021/04/06 09:03:36;;;;;;;4.18;1.50;;;;;;;;;;5095340;28;20748;-71
2021/04/06 09:06:03;;;;;;;2.80;1.33;;;;;;;;;;5095024;28;20208;-71
2021/04/06 09:08:29;;;;;;;6.88;2.10;;;;;;;;;;5095215;28;20204;-73
2021/04/06 09:11:04;;;;;;;6.57;2.20;;;;;;;;;;5095048;28;20223;-72
2021/04/06 09:13:32;;;;;;;2.03;1.83;;;;;;;;;;5095198;28;20212;-73
2021/04/06 09:15:59;;;;;;;1.55;1.33;;;;;;;;;;5094827;28;20204;-73
2021/04/06 09:18:26;;;;;;;1.90;1.63;;;;;;;;;;5095212;28;20209;-72
2021/04/06 09:20:52;;;;;;;1.10;0.95;;;;;;;;;;5094941;28;20210;-73
2021/04/06 09:23:18;;;;;;;3.10;1.35;;;;;;;;;;5094644;28;20279;-73
2021/04/06 09:25:45;;;;;;;2.55;1.55;;;;;;;;;;5094568;28;20196;-72
2021/04/06 09:28:13;;;;;;;1.10;0.90;;;;;;;;;;5095156;28;20322;-73
2021/04/06 09:30:44;;;;;;;1.52;1.40;;;;;;;;;;5095262;28;20219;-74
2021/04/06 09:33:12;;;;;;;2.60;1.40;;;;;;;;;;5094958;28;20228;-74
2021/04/06 09:35:38;;;;;;;1.65;1.55;;;;;;;;;;5093876;28;20228;-73
2021/04/06 09:38:05;;;;;;;3.90;1.30;;;;;;;;;;5094378;28;20647;-75
2021/04/06 09:40:32;;;;;;;2.35;1.38;;;;;;;;;;5094816;28;20292;-73
2021/04/06 09:42:59;;;;;;;3.67;1.10;;;;;;;;;;5094710;28;20204;-73
2021/04/06 09:45:25;;;;;;;2.53;1.27;;;;;;;;;;5094219;28;20197;-73
2021/04/06 09:47:52;;;;;;;4.15;1.10;;;;;;;;;;5094634;28;20590;-73
2021/04/06 09:50:20;;;;;;;2.60;1.58;;;;;;;;;;5094288;28;20247;-74
2021/04/06 09:52:46;;;;;;;1.40;1.30;;;;;;;;;;5095015;28;20229;-74
2021/04/06 09:55:13;;;;;;;2.08;1.60;;;;;;;;;;5094470;28;20542;-74
2021/04/06 09:57:40;;;;;;;7.15;1.73;;;;;;;;;;5094265;28;20219;-74
2021/04/06 10:00:07;;;;;;;2.50;1.23;;;;;;;;;;5093948;28;20205;-73
2021/04/06 10:02:34;;;;;;;0.80;0.80;;;;;;;;;;5093850;28;20194;-74
2021/04/06 10:05:01;;;;;;;1.90;1.27;;;;;;;;;;5093913;28;20206;-73
2021/04/06 10:07:28;;;;;;;1.15;1.05;;;;;;;;;;5094040;28;20242;-73
2021/04/06 10:09:55;;;;;;;1.00;0.80;;;;;;;;;;5093507;28;20205;-74
2021/04/06 10:12:22;;;;;;;1.98;1.33;;;;;;;;;;5093469;28;20220;-73
2021/04/06 10:14:48;;;;;;;1.08;0.90;;;;;;;;;;5093708;28;20246;-74
2021/04/06 10:17:15;;;;;;;1.40;1.27;;;;;;;;;;5093692;28;20206;-74
2021/04/06 10:19:43;;;;;;;2.10;1.60;;;;;;;;;;5093642;28;20260;-73
2021/04/06 10:22:11;;;;;;;1.00;1.00;;;;;;;;;;5093379;28;20212;-75
2021/04/06 10:24:40;;;;;;;2.05;1.35;;;;;;;;;;5093481;28;20206;-73
2021/04/06 10:27:16;;;;;;;3.15;1.42;;;;;;;;;;5093510;28;20202;-75
2021/04/06 10:29:42;;;;;;;1.50;1.40;;;;;;;;;;5093359;28;20558;-74
2021/04/06 10:32:22;;;;;;;2.55;1.42;;;;;;;;;;5093016;28;20223;-74
2021/04/06 10:34:59;;;;;;;1.52;1.40;;;;;;;;;;5093759;28;20289;-74
2021/04/06 10:37:37;;;;;;;0.93;0.93;;;;;;;;;;5093337;28;20242;-73
2021/04/06 10:40:19;;;;;;;1.42;1.33;;;;;;;;;;5093482;28;20245;-74
2021/04/06 10:42:47;;;;;;;1.77;1.10;;;;;;;;;;5093238;28;20222;-73
2021/04/06 10:45:13;;;;;;;1.75;1.65;;;;;;;;;;5092908;28;20210;-74
2021/04/06 10:47:40;;;;;;;1.13;1.02;;;;;;;;;;5092939;28;20236;-72
2021/04/06 10:50:06;;;;;;;0.98;0.90;;;;;;;;;;5092752;28;20602;-74
2021/04/06 10:52:34;;;;;;;2.67;1.75;;;;;;;;;;5092753;28;20257;-73
2021/04/06 10:55:01;;;;;;;1.77;1.35;;;;;;;;;;5093068;28;20299;-72
2021/04/06 10:57:28;;;;;;;1.40;1.00;;;;;;;;;;5092682;28;20261;-75
2021/04/06 10:59:54;;;;;;;1.02;1.02;;;;;;;;;;5092687;28;20260;-74
2021/04/06 11:02:21;;;;;;;1.13;1.02;;;;;;;;;;5089074;28;20229;-74
2021/04/06 11:04:47;;;;;;;0.80;0.80;;;;;;;;;;5101310;28;20664;-73
2021/04/06 11:07:14;;;;;;;1.33;1.15;;;;;;;;;;5103692;28;20968;-73
2021/04/06 11:09:42;;;;;;;0.80;0.75;;;;;;;;;;5096216;28;20195;-74
2021/04/06 11:12:09;;;;;;;1.13;1.02;;;;;;;;;;5103922;28;20269;-75
2021/04/06 11:14:36;;;;;;;0.70;0.60;;;;;;;;;;5101083;28;20264;-74
2021/04/06 11:17:05;;;;;;;1.20;0.90;;;;;;;;;;5102793;28;20338;-74
2021/04/06 11:19:32;;;;;;;4.15;1.58;;;;;;;;;;5101728;28;20204;-74
2021/04/06 11:21:59;;;;;;;0.80;0.80;;;;;;;;;;5103269;28;20193;-74
2021/04/06 11:24:26;;;;;;;0.80;0.70;;;;;;;;;;5100883;28;20238;-75
2021/04/06 11:26:53;;;;;;;0.88;0.80;;;;;;;;;;5096116;28;20213;-73
2021/04/06 11:29:20;;;;;;;1.33;1.05;;;;;;;;;;5102637;28;20647;-73
2021/04/06 11:31:47;;;;;;;0.90;0.90;;;;;;;;;;5103077;28;20207;-73
2021/04/06 11:34:15;;;;;;;1.60;1.13;;;;;;;;;;5099076;28;20196;-75
2021/04/06 11:36:43;;;;;;;4.50;1.02;;;;;;;;;;5091789;28;20298;-73
2021/04/06 11:39:09;;;;;;;0.82;0.73;;;;;;;;;;5087233;28;20738;-75
2021/04/06 11:41:36;;;;;;;1.25;0.85;;;;;;;;;;5091541;28;20194;-74
2021/04/06 11:44:03;;;;;;;0.90;0.90;;;;;;;;;;5091822;28;20213;-74
2021/04/06 11:46:30;;;;;;;0.90;0.90;;;;;;;;;;5091646;28;20198;-75
2021/04/06 11:48:56;;;;;;;0.80;0.70;;;;;;;;;;5091346;28;20196;-74
2021/04/06 11:51:22;;;;;;;1.00;0.77;;;;;;;;;;5091514;28;20215;-73
2021/04/06 11:53:49;;;;;;;1.65;1.10;;;;;;;;;;5091646;28;20663;-74
2021/04/06 11:56:15;;;;;;;0.90;0.80;;;;;;;;;;5091704;28;20289;-72
2021/04/06 11:58:41;;;;;;;1.10;1.00;;;;;;;;;;5091890;28;20202;-72
2021/04/06 12:01:08;;;;;;;2.35;1.20;;;;;;;;;;5091568;28;20237;-72
2021/04/06 12:03:35;;;;;;;1.90;1.00;;;;;;;;;;5092047;28;20214;-73
2021/04/06 12:06:01;;;;;;;1.00;0.90;;;;;;;;;;5091757;28;20197;-73
2021/04/06 12:08:28;;;;;;;0.75;0.75;;;;;;;;;;5091194;28;20191;-73
2021/04/06 12:10:54;;;;;;;1.25;1.13;;;;;;;;;;5091426;28;20259;-73
2021/04/06 12:13:20;;;;;;;1.77;1.00;;;;;;;;;;5092129;28;20189;-73
2021/04/06 12:15:46;;;;;;;0.80;0.70;;;;;;;;;;5095713;28;20547;-73
2021/04/06 12:18:13;;;;;;;1.95;1.15;;;;;;;;;;5095263;28;20203;-72
2021/04/06 12:20:41;;;;;;;1.70;1.25;;;;;;;;;;5095678;28;20234;-73
2021/04/06 12:23:07;;;;;;;1.00;0.90;;;;;;;;;;5095205;28;20277;-73
2021/04/06 12:25:33;;;;;;;0.70;0.60;;;;;;;;;;5095184;28;20196;-73
2021/04/06 12:27:59;;;;;;;1.08;1.05;;;;;;;;;;5095238;28;20263;-73
2021/04/06 12:30:29;;;;;;;1.48;1.15;;;;;;;;;;5094907;28;20249;-74
2021/04/06 12:32:55;;;;;;;1.27;1.17;;;;;;;;;;5094789;28;20621;-73
2021/04/06 12:35:22;;;;;;;1.40;1.30;;;;;;;;;;5094815;28;20541;-73
2021/04/06 12:37:48;;;;;;;1.08;0.98;;;;;;;;;;5090747;28;20220;-73
2021/04/06 12:40:15;;;;;;;1.45;0.90;;;;;;;;;;5094645;28;20278;-74
2021/04/06 12:42:41;;;;;;;2.17;1.92;;;;;;;;;;5094853;28;20188;-74
2021/04/06 12:45:09;;;;;;;2.40;1.58;;;;;;;;;;5094862;28;20218;-74
2021/04/06 12:47:35;;;;;;;1.00;0.90;;;;;;;;;;5094635;28;20207;-74
2021/04/06 12:50:01;;;;;;;2.15;1.27;;;;;;;;;;5094361;28;20198;-73
2021/04/06 12:52:28;;;;;;;8.80;1.52;;;;;;;;;;5094401;28;20237;-72
2021/04/06 12:54:54;;;;;;;1.40;1.00;;;;;;;;;;5094234;28;20575;-71
2021/04/06 12:57:22;;;;;;;1.58;1.20;;;;;;;;;;5094579;28;20194;-73
2021/04/06 12:59:49;;;;;;;3.35;1.33;;;;;;;;;;5094108;28;20196;-73
2021/04/06 13:02:15;;;;;;;2.10;1.58;;;;;;;;;;5094921;28;20213;-73
2021/04/06 13:04:41;;;;;;;2.08;1.48;;;;;;;;;;5094235;28;20194;-73
2021/04/06 13:07:07;;;;;;;3.50;1.65;;;;;;;;;;5094102;28;20229;-71
2021/04/06 13:09:34;;;;;;;1.17;1.08;;;;;;;;;;5093847;28;20184;-72
2021/04/06 13:12:01;;;;;;;2.33;1.20;;;;;;;;;;5093007;28;20614;-72
2021/04/06 13:14:27;;;;;;;1.35;1.25;;;;;;;;;;5091485;28;20195;-71
2021/04/06 13:16:53;;;;;;;5.25;1.45;;;;;;;;;;5093394;28;20194;-73
2021/04/06 13:19:19;;;;;;;3.42;1.15;;;;;;;;;;5091794;28;20202;-73
2021/04/06 13:21:45;;;;;;;2.08;1.40;;;;;;;;;;5093754;28;20244;-73
2021/04/06 13:24:12;;;;;;;1.25;1.02;;;;;;;;;;5093065;28;20279;-73
2021/04/06 13:26:39;;;;;;;1.80;0.80;;;;;;;;;;5092468;28;20210;-73
2021/04/06 13:29:05;;;;;;;2.15;0.90;;;;;;;;;;5093895;28;20229;-72
2021/04/06 13:31:31;;;;;;;0.80;0.75;;;;;;;;;;5094494;28;20558;-73
2021/04/06 13:33:57;;;;;;;1.63;1.00;;;;;;;;;;5094348;28;20211;-73
2021/04/06 13:36:24;;;;;;;1.58;1.15;;;;;;;;;;5094032;28;20274;-73
2021/04/06 13:38:50;;;;;;;1.83;1.40;;;;;;;;;;5093816;28;20207;-74
2021/04/06 13:41:16;;;;;;;3.40;1.60;;;;;;;;;;5093923;28;20335;-73
2021/04/06 13:43:43;;;;;;;1.55;0.70;;;;;;;;;;5093130;28;20236;-74
2021/04/06 13:46:09;;;;;;;1.73;1.45;;;;;;;;;;5093936;28;20203;-74
2021/04/06 13:48:35;;;;;;;1.10;1.00;;;;;;;;;;5093996;28;20201;-73
2021/04/06 13:51:02;;;;;;;1.02;0.93;;;;;;;;;;5094038;28;20245;-73
2021/04/06 13:53:28;;;;;;;1.27;1.17;;;;;;;;;;5093824;28;20297;-74
2021/04/06 13:55:54;;;;;;;2.85;1.42;;;;;;;;;;5093850;28;20188;-74
2021/04/06 13:58:20;;;;;;;3.17;1.73;;;;;;;;;;5093343;28;20210;-73
2021/04/06 14:00:49;;;;;;;2.60;1.13;;;;;;;;;;5088507;28;20232;-73
2021/04/06 14:03:15;;;;;;;0.90;0.90;;;;;;;;;;5073338;28;20197;-72
2021/04/06 14:05:42;;;;;;;1.52;1.42;;;;;;;;;;5073539;28;20552;-72
2021/04/06 14:08:08;;;;;;;1.00;0.85;;;;;;;;;;5073361;28;20223;-73
2021/04/06 14:10:36;;;;;;;2.50;1.65;;;;;;;;;;5073187;28;20531;-74
2021/04/06 14:13:02;;;;;;;1.30;1.00;;;;;;;;;;5072745;28;20555;-72
2021/04/06 14:15:29;;;;;;;1.55;1.15;;;;;;;;;;5088327;28;20286;-72
2021/04/06 14:17:56;;;;;;;2.25;0.90;;;;;;;;;;5093770;28;20620;-72
2021/04/06 14:20:23;;;;;;;1.30;1.20;;;;;;;;;;5093522;28;20279;-75
2021/04/06 14:22:50;;;;;;;1.40;1.27;;;;;;;;;;5093464;28;20207;-72
2021/04/06 14:25:17;;;;;;;1.70;1.60;;;;;;;;;;5093739;28;20631;-73
2021/04/06 14:27:44;;;;;;;1.83;1.73;;;;;;;;;;5093159;28;20211;-73
2021/04/06 14:30:11;;;;;;;1.60;1.50;;;;;;;;;;5092699;28;20253;-73
2021/04/06 14:32:39;;;;;;;1.67;1.30;;;;;;;;;;5093467;28;20569;-74
2021/04/06 14:35:07;;;;;;;2.28;1.58;;;;;;;;;;5093399;28;20201;-73
2021/04/06 14:37:33;;;;;;;2.67;1.42;;;;;;;;;;5094778;28;20253;-73
2021/04/06 14:40:00;;;;;;;3.67;1.70;;;;;;;;;;5092886;28;20638;-72
2021/04/06 14:42:26;;;;;;;1.92;1.00;;;;;;;;;;5093040;28;20698;-73
2021/04/06 14:44:52;;;;;;;1.27;1.17;;;;;;;;;;5092443;28;20209;-73
2021/04/06 14:47:18;;;;;;;1.70;1.42;;;;;;;;;;5093059;28;20775;-74
2021/04/06 14:49:44;;;;;;;3.58;1.40;;;;;;;;;;5093436;28;20195;-73